sensor_id;sensor_type;location;lat;lon;timestamp;temperature;humidity
963;DHT22;469;48.770;9.176;2023-02-28T00:01:14;-0.70;1.00
963;DHT22;469;48.770;9.176;2023-02-28T00:03:43;-0.70;1.00
963;DHT22;469;48.770;9.176;2023-02-28T00:06:13;-0.70;1.00
963;DHT22;469;48.770;9.176;2023-02-28T00:08:39;-0.70;1.00
963;DHT22;469;48.770;9.176;2023-02-28T00:11:08;-0.70;1.00
963;DHT22;469;48.770;9.176;2023-02-28T00:13:46;-0.70;1.00
963;DHT22;469;48.770;9.176;2023-02-28T00:16:14;-0.70;1.00
963;DHT22;469;48.770;9.176;2023-02-28T00:18:43;-0.70;1.00
963;DHT22;469;48.770;9.176;2023-02-28T00:21:10;-0.70;1.00
963;DHT22;469;48.770;9.176;2023-02-28T00:23:36;-0.70;1.00
963;DHT22;469;48.770;9.176;2023-02-28T00:26:04;-0.80;1.00
963;DHT22;469;48.770;9.176;2023-02-28T00:28:30;-0.80;1.00
963;DHT22;469;48.770;9.176;2023-02-28T00:30:57;-0.80;1.00
963;DHT22;469;48.770;9.176;2023-02-28T00:33:25;-0.80;1.00
963;DHT22;469;48.770;9.176;2023-02-28T00:36:01;-0.80;1.00
963;DHT22;469;48.770;9.176;2023-02-28T00:38:28;-0.80;1.00
963;DHT22;469;48.770;9.176;2023-02-28T00:40:55;-0.90;1.00
963;DHT22;469;48.770;9.176;2023-02-28T00:43:22;-0.90;1.00
963;DHT22;469;48.770;9.176;2023-02-28T00:45:48;-0.90;1.00
963;DHT22;469;48.770;9.176;2023-02-28T00:48:15;-0.90;1.00
963;DHT22;469;48.770;9.176;2023-02-28T00:50:42;-0.90;1.00
963;DHT22;469;48.770;9.176;2023-02-28T00:53:10;-0.90;1.00
963;DHT22;469;48.770;9.176;2023-02-28T00:55:37;-0.90;1.00
963;DHT22;469;48.770;9.176;2023-02-28T00:58:03;-0.90;1.00
963;DHT22;469;48.770;9.176;2023-02-28T01:00:30;-0.90;1.00
963;DHT22;469;48.770;9.176;2023-02-28T01:02:57;-0.90;1.00
963;DHT22;469;48.770;9.176;2023-02-28T01:05:24;-1.00;1.00
963;DHT22;469;48.770;9.176;2023-02-28T01:07:50;-0.70;1.00
963;DHT22;469;48.770;9.176;2023-02-28T01:10:19;-1.00;1.00
963;DHT22;469;48.770;9.176;2023-02-28T01:12:46;-1.00;1.00
963;DHT22;469;48.770;9.176;2023-02-28T01:15:13;-1.00;1.00
963;DHT22;469;48.770;9.176;2023-02-28T01:17:39;-1.00;1.00
963;DHT22;469;48.770;9.176;2023-02-28T01:20:07;-1.00;1.00
963;DHT22;469;48.770;9.176;2023-02-28T01:22:35;-0.80;1.00
963;DHT22;469;48.770;9.176;2023-02-28T01:25:01;-1.00;1.00
963;DHT22;469;48.770;9.176;2023-02-28T01:27:30;-1.10;1.00
963;DHT22;469;48.770;9.176;2023-02-28T01:29:56;-1.10;1.00
963;DHT22;469;48.770;9.176;2023-02-28T01:32:23;-1.10;1.00
963;DHT22;469;48.770;9.176;2023-02-28T01:34:50;-1.00;1.00
963;DHT22;469;48.770;9.176;2023-02-28T01:37:16;-1.10;1.00
963;DHT22;469;48.770;9.176;2023-02-28T01:39:43;-1.10;1.00
963;DHT22;469;48.770;9.176;2023-02-28T01:42:10;-1.20;1.00
963;DHT22;469;48.770;9.176;2023-02-28T01:45:03;-1.10;1.00
963;DHT22;469;48.770;9.176;2023-02-28T01:47:32;-1.10;1.00
963;DHT22;469;48.770;9.176;2023-02-28T01:50:02;-1.10;1.00
963;DHT22;469;48.770;9.176;2023-02-28T01:52:31;-1.10;1.00
963;DHT22;469;48.770;9.176;2023-02-28T01:54:59;-1.10;1.00
963;DHT22;469;48.770;9.176;2023-02-28T01:57:30;-1.10;1.00
963;DHT22;469;48.770;9.176;2023-02-28T02:00:06;-1.10;1.00
963;DHT22;469;48.770;9.176;2023-02-28T02:02:34;-1.10;1.00
963;DHT22;469;48.770;9.176;2023-02-28T02:05:05;-1.10;1.00
963;DHT22;469;48.770;9.176;2023-02-28T02:07:34;-1.10;1.00
963;DHT22;469;48.770;9.176;2023-02-28T02:10:06;-1.10;1.00
963;DHT22;469;48.770;9.176;2023-02-28T02:12:48;-1.10;1.00
963;DHT22;469;48.770;9.176;2023-02-28T02:15:25;-1.10;1.00
963;DHT22;469;48.770;9.176;2023-02-28T02:17:57;-1.10;1.00
963;DHT22;469;48.770;9.176;2023-02-28T02:20:50;-1.10;1.00
963;DHT22;469;48.770;9.176;2023-02-28T02:23:49;-0.80;1.00
963;DHT22;469;48.770;9.176;2023-02-28T02:26:55;-1.10;1.00
963;DHT22;469;48.770;9.176;2023-02-28T02:29:54;-1.10;1.00
963;DHT22;469;48.770;9.176;2023-02-28T02:35:43;-1.00;1.00
963;DHT22;469;48.770;9.176;2023-02-28T02:38:19;-1.00;1.00
963;DHT22;469;48.770;9.176;2023-02-28T02:41:02;-1.00;1.00
963;DHT22;469;48.770;9.176;2023-02-28T02:46:59;-0.90;1.00
963;DHT22;469;48.770;9.176;2023-02-28T02:49:31;-0.80;1.00
963;DHT22;469;48.770;9.176;2023-02-28T02:52:03;-0.80;1.00
963;DHT22;469;48.770;9.176;2023-02-28T02:54:33;-0.70;1.00
963;DHT22;469;48.770;9.176;2023-02-28T02:57:05;-0.60;1.00
963;DHT22;469;48.770;9.176;2023-02-28T02:59:35;-0.70;1.00
963;DHT22;469;48.770;9.176;2023-02-28T03:02:05;-0.60;1.00
963;DHT22;469;48.770;9.176;2023-02-28T03:04:36;-0.60;1.00
963;DHT22;469;48.770;9.176;2023-02-28T03:07:06;-0.60;1.00
963;DHT22;469;48.770;9.176;2023-02-28T03:09:34;-0.60;1.00
963;DHT22;469;48.770;9.176;2023-02-28T03:12:02;-0.50;1.00
963;DHT22;469;48.770;9.176;2023-02-28T03:14:46;-0.50;1.00
963;DHT22;469;48.770;9.176;2023-02-28T03:17:28;-0.50;1.00
963;DHT22;469;48.770;9.176;2023-02-28T03:20:07;-0.50;1.00
963;DHT22;469;48.770;9.176;2023-02-28T03:22:56;-0.30;1.00
963;DHT22;469;48.770;9.176;2023-02-28T03:25:31;-0.60;1.00
963;DHT22;469;48.770;9.176;2023-02-28T03:28:04;-0.70;1.00
963;DHT22;469;48.770;9.176;2023-02-28T03:30:36;-0.60;1.00
963;DHT22;469;48.770;9.176;2023-02-28T03:33:08;-0.60;1.00
963;DHT22;469;48.770;9.176;2023-02-28T03:35:41;-0.60;1.00
963;DHT22;469;48.770;9.176;2023-02-28T03:38:14;-0.50;1.00
963;DHT22;469;48.770;9.176;2023-02-28T03:40:48;-0.40;1.00
963;DHT22;469;48.770;9.176;2023-02-28T03:43:20;-0.40;1.00
963;DHT22;469;48.770;9.176;2023-02-28T03:45:52;-0.40;1.00
963;DHT22;469;48.770;9.176;2023-02-28T03:48:22;-0.40;1.00
963;DHT22;469;48.770;9.176;2023-02-28T03:50:53;-0.40;1.00
963;DHT22;469;48.770;9.176;2023-02-28T03:53:25;-0.50;1.00
963;DHT22;469;48.770;9.176;2023-02-28T03:55:57;-0.50;1.00
963;DHT22;469;48.770;9.176;2023-02-28T03:58:29;-0.50;1.00
963;DHT22;469;48.770;9.176;2023-02-28T04:01:00;-0.40;1.00
963;DHT22;469;48.770;9.176;2023-02-28T04:03:34;-0.40;1.00
963;DHT22;469;48.770;9.176;2023-02-28T04:06:02;-0.20;1.00
963;DHT22;469;48.770;9.176;2023-02-28T04:08:30;-0.30;1.00
963;DHT22;469;48.770;9.176;2023-02-28T04:11:00;-0.40;1.00
963;DHT22;469;48.770;9.176;2023-02-28T04:13:31;-0.40;1.00
963;DHT22;469;48.770;9.176;2023-02-28T04:15:58;-0.40;1.00
963;DHT22;469;48.770;9.176;2023-02-28T04:18:24;-0.30;1.00
963;DHT22;469;48.770;9.176;2023-02-28T04:20:51;-0.30;1.00
963;DHT22;469;48.770;9.176;2023-02-28T04:23:18;-0.30;1.00
963;DHT22;469;48.770;9.176;2023-02-28T04:25:46;-0.20;1.00
963;DHT22;469;48.770;9.176;2023-02-28T04:28:12;-0.20;1.00
963;DHT22;469;48.770;9.176;2023-02-28T04:30:39;-0.10;1.00
963;DHT22;469;48.770;9.176;2023-02-28T04:33:06;-0.10;1.00
963;DHT22;469;48.770;9.176;2023-02-28T04:35:32;-0.10;1.00
963;DHT22;469;48.770;9.176;2023-02-28T04:37:59;-0.10;1.00
963;DHT22;469;48.770;9.176;2023-02-28T04:40:26;-0.10;1.00
963;DHT22;469;48.770;9.176;2023-02-28T04:42:54;-0.10;1.00
963;DHT22;469;48.770;9.176;2023-02-28T04:45:21;-0.10;1.00
963;DHT22;469;48.770;9.176;2023-02-28T04:47:47;-0.10;1.00
963;DHT22;469;48.770;9.176;2023-02-28T04:50:14;-0.20;1.00
963;DHT22;469;48.770;9.176;2023-02-28T04:52:41;-0.10;1.00
963;DHT22;469;48.770;9.176;2023-02-28T04:55:08;-0.10;1.00
963;DHT22;469;48.770;9.176;2023-02-28T04:57:35;-0.10;1.00
963;DHT22;469;48.770;9.176;2023-02-28T05:00:04;-0.10;1.00
963;DHT22;469;48.770;9.176;2023-02-28T05:02:37;-0.10;1.00
963;DHT22;469;48.770;9.176;2023-02-28T05:05:04;-0.10;1.00
963;DHT22;469;48.770;9.176;2023-02-28T05:07:30;-0.10;1.00
963;DHT22;469;48.770;9.176;2023-02-28T05:09:57;-0.20;1.00
963;DHT22;469;48.770;9.176;2023-02-28T05:12:24;-0.20;1.00
963;DHT22;469;48.770;9.176;2023-02-28T05:14:51;-0.20;1.00
963;DHT22;469;48.770;9.176;2023-02-28T05:17:19;-0.20;1.00
963;DHT22;469;48.770;9.176;2023-02-28T05:19:45;-0.20;1.00
963;DHT22;469;48.770;9.176;2023-02-28T05:22:13;-0.10;1.00
963;DHT22;469;48.770;9.176;2023-02-28T05:24:41;-0.20;1.00
963;DHT22;469;48.770;9.176;2023-02-28T05:27:08;-0.20;1.00
963;DHT22;469;48.770;9.176;2023-02-28T05:29:35;-0.20;1.00
963;DHT22;469;48.770;9.176;2023-02-28T05:32:08;-0.20;1.00
963;DHT22;469;48.770;9.176;2023-02-28T05:34:39;-0.20;1.00
963;DHT22;469;48.770;9.176;2023-02-28T05:37:06;-0.10;1.00
963;DHT22;469;48.770;9.176;2023-02-28T05:39:39;-0.10;1.00
963;DHT22;469;48.770;9.176;2023-02-28T05:42:06;-0.10;1.00
963;DHT22;469;48.770;9.176;2023-02-28T05:44:33;-0.20;1.00
963;DHT22;469;48.770;9.176;2023-02-28T05:47:00;-0.10;1.00
963;DHT22;469;48.770;9.176;2023-02-28T05:49:26;-0.10;1.00
963;DHT22;469;48.770;9.176;2023-02-28T05:51:54;-0.10;1.00
963;DHT22;469;48.770;9.176;2023-02-28T05:54:21;-0.10;1.00
963;DHT22;469;48.770;9.176;2023-02-28T05:56:48;-0.10;1.00
963;DHT22;469;48.770;9.176;2023-02-28T05:59:15;-0.10;1.00
963;DHT22;469;48.770;9.176;2023-02-28T06:01:43;-0.20;1.00
963;DHT22;469;48.770;9.176;2023-02-28T06:04:14;-0.10;1.00
963;DHT22;469;48.770;9.176;2023-02-28T06:06:43;-0.10;1.00
963;DHT22;469;48.770;9.176;2023-02-28T06:09:13;-0.10;1.00
963;DHT22;469;48.770;9.176;2023-02-28T06:11:40;-0.10;1.00
963;DHT22;469;48.770;9.176;2023-02-28T06:14:14;-0.20;1.00
963;DHT22;469;48.770;9.176;2023-02-28T06:16:42;-0.20;1.00
963;DHT22;469;48.770;9.176;2023-02-28T06:19:10;-0.20;1.00
963;DHT22;469;48.770;9.176;2023-02-28T06:21:39;-0.10;1.00
963;DHT22;469;48.770;9.176;2023-02-28T06:24:07;-0.10;1.00
963;DHT22;469;48.770;9.176;2023-02-28T06:26:36;-0.10;1.00
963;DHT22;469;48.770;9.176;2023-02-28T06:29:03;-0.10;1.00
963;DHT22;469;48.770;9.176;2023-02-28T06:31:29;-0.10;1.00
963;DHT22;469;48.770;9.176;2023-02-28T06:33:59;-0.10;1.00
963;DHT22;469;48.770;9.176;2023-02-28T06:36:30;-0.10;1.00
963;DHT22;469;48.770;9.176;2023-02-28T06:38:57;0.00;1.00
963;DHT22;469;48.770;9.176;2023-02-28T06:41:25;0.00;1.00
963;DHT22;469;48.770;9.176;2023-02-28T06:44:01;0.00;1.00
963;DHT22;469;48.770;9.176;2023-02-28T06:46:28;0.00;1.00
963;DHT22;469;48.770;9.176;2023-02-28T06:48:55;0.10;1.00
963;DHT22;469;48.770;9.176;2023-02-28T06:51:22;0.00;1.00
963;DHT22;469;48.770;9.176;2023-02-28T06:53:50;0.00;1.00
963;DHT22;469;48.770;9.176;2023-02-28T06:56:19;0.10;1.00
963;DHT22;469;48.770;9.176;2023-02-28T06:58:47;0.10;1.00
963;DHT22;469;48.770;9.176;2023-02-28T07:01:16;0.10;1.00
963;DHT22;469;48.770;9.176;2023-02-28T07:03:44;0.10;1.00
963;DHT22;469;48.770;9.176;2023-02-28T07:06:13;0.20;1.00
963;DHT22;469;48.770;9.176;2023-02-28T07:08:44;0.20;1.00
963;DHT22;469;48.770;9.176;2023-02-28T07:11:14;0.20;1.00
963;DHT22;469;48.770;9.176;2023-02-28T07:13:41;0.20;1.00
963;DHT22;469;48.770;9.176;2023-02-28T07:16:12;0.20;1.00
963;DHT22;469;48.770;9.176;2023-02-28T07:18:43;0.20;1.00
963;DHT22;469;48.770;9.176;2023-02-28T07:21:12;0.30;1.00
963;DHT22;469;48.770;9.176;2023-02-28T07:23:40;0.40;1.00
963;DHT22;469;48.770;9.176;2023-02-28T07:26:14;0.40;1.00
963;DHT22;469;48.770;9.176;2023-02-28T07:28:46;0.60;1.00
963;DHT22;469;48.770;9.176;2023-02-28T07:31:18;0.70;1.00
963;DHT22;469;48.770;9.176;2023-02-28T07:33:50;0.70;1.00
963;DHT22;469;48.770;9.176;2023-02-28T07:36:21;0.70;1.00
963;DHT22;469;48.770;9.176;2023-02-28T07:38:56;0.70;1.00
963;DHT22;469;48.770;9.176;2023-02-28T07:41:30;0.70;1.00
963;DHT22;469;48.770;9.176;2023-02-28T07:44:08;0.70;1.00
963;DHT22;469;48.770;9.176;2023-02-28T07:46:39;0.70;1.00
963;DHT22;469;48.770;9.176;2023-02-28T07:49:11;0.80;1.00
963;DHT22;469;48.770;9.176;2023-02-28T07:51:39;0.90;1.00
963;DHT22;469;48.770;9.176;2023-02-28T07:54:09;0.80;1.00
963;DHT22;469;48.770;9.176;2023-02-28T07:56:43;0.90;1.00
963;DHT22;469;48.770;9.176;2023-02-28T07:59:14;0.90;1.00
963;DHT22;469;48.770;9.176;2023-02-28T08:01:41;1.00;1.00
963;DHT22;469;48.770;9.176;2023-02-28T08:04:14;1.00;1.00
963;DHT22;469;48.770;9.176;2023-02-28T08:06:44;1.00;1.00
963;DHT22;469;48.770;9.176;2023-02-28T08:09:11;1.10;1.00
963;DHT22;469;48.770;9.176;2023-02-28T08:11:45;1.10;1.00
963;DHT22;469;48.770;9.176;2023-02-28T08:14:18;1.20;1.00
963;DHT22;469;48.770;9.176;2023-02-28T08:16:49;1.20;1.00
963;DHT22;469;48.770;9.176;2023-02-28T08:19:19;1.30;1.00
963;DHT22;469;48.770;9.176;2023-02-28T08:21:45;1.30;1.00
963;DHT22;469;48.770;9.176;2023-02-28T08:24:12;1.30;1.00
963;DHT22;469;48.770;9.176;2023-02-28T08:26:42;1.30;1.00
963;DHT22;469;48.770;9.176;2023-02-28T08:29:09;1.30;1.00
963;DHT22;469;48.770;9.176;2023-02-28T08:31:36;1.40;1.00
963;DHT22;469;48.770;9.176;2023-02-28T08:34:07;1.40;1.00
963;DHT22;469;48.770;9.176;2023-02-28T08:36:43;1.50;1.00
963;DHT22;469;48.770;9.176;2023-02-28T08:39:11;1.50;1.00
963;DHT22;469;48.770;9.176;2023-02-28T08:41:39;1.60;1.00
963;DHT22;469;48.770;9.176;2023-02-28T08:44:06;1.80;1.00
963;DHT22;469;48.770;9.176;2023-02-28T08:46:33;1.80;1.00
963;DHT22;469;48.770;9.176;2023-02-28T08:49:04;1.80;1.00
963;DHT22;469;48.770;9.176;2023-02-28T08:54:38;1.60;1.00
963;DHT22;469;48.770;9.176;2023-02-28T08:57:08;1.60;1.00
963;DHT22;469;48.770;9.176;2023-02-28T08:59:35;1.60;1.00
963;DHT22;469;48.770;9.176;2023-02-28T09:02:03;1.60;1.00
963;DHT22;469;48.770;9.176;2023-02-28T09:04:32;1.70;1.00
963;DHT22;469;48.770;9.176;2023-02-28T09:07:03;1.60;1.00
963;DHT22;469;48.770;9.176;2023-02-28T09:09:40;1.60;1.00
963;DHT22;469;48.770;9.176;2023-02-28T09:12:23;1.50;1.00
963;DHT22;469;48.770;9.176;2023-02-28T09:14:50;1.70;1.00
963;DHT22;469;48.770;9.176;2023-02-28T09:17:18;1.80;1.00
963;DHT22;469;48.770;9.176;2023-02-28T09:19:47;1.80;1.00
963;DHT22;469;48.770;9.176;2023-02-28T09:22:18;1.80;1.00
963;DHT22;469;48.770;9.176;2023-02-28T09:24:47;1.90;1.00
963;DHT22;469;48.770;9.176;2023-02-28T09:27:16;2.00;1.00
963;DHT22;469;48.770;9.176;2023-02-28T09:29:42;2.00;1.00
963;DHT22;469;48.770;9.176;2023-02-28T09:32:09;2.20;1.00
963;DHT22;469;48.770;9.176;2023-02-28T09:34:37;2.30;1.00
963;DHT22;469;48.770;9.176;2023-02-28T09:37:04;2.20;1.00
963;DHT22;469;48.770;9.176;2023-02-28T09:39:30;2.40;1.00
963;DHT22;469;48.770;9.176;2023-02-28T09:41:59;2.40;1.00
963;DHT22;469;48.770;9.176;2023-02-28T09:44:29;2.30;1.00
963;DHT22;469;48.770;9.176;2023-02-28T09:47:00;2.50;1.00
963;DHT22;469;48.770;9.176;2023-02-28T09:49:36;2.30;1.00
963;DHT22;469;48.770;9.176;2023-02-28T09:52:09;2.40;1.00
963;DHT22;469;48.770;9.176;2023-02-28T09:54:36;2.50;1.00
963;DHT22;469;48.770;9.176;2023-02-28T09:57:15;2.40;1.00
963;DHT22;469;48.770;9.176;2023-02-28T15:48:48;2.50;1.00
963;DHT22;469;48.770;9.176;2023-02-28T16:13:15;7.40;1.00
963;DHT22;469;48.770;9.176;2023-02-28T16:16:15;7.30;1.00
963;DHT22;469;48.770;9.176;2023-02-28T16:18:56;7.30;1.00
